Time;durP1;ratioP1;P1;durP2;ratioP2;P2;SDS_P1;SDS_P2;PMS_P1;PMS_P2;Temp;Humidity;BMP_temperature;BMP_pressure;BME280_temperature;BME280_humidity;BME280_pressure;Samples;Min_cycle;Max_cycle;Signal;HPM_P1;HPM_P2
2022/06/03 00:02:49;;;;;;;8.38;4.45;;;;;;;15.78;60.49;101818.16;4937842;28;120063;-77
2022/06/03 00:05:26;;;;;;;11.95;5.20;;;;;;;15.77;60.57;101818.63;4956581;28;119856;-78
2022/06/03 00:08:07;;;;;;;10.00;5.43;;;;;;;15.76;60.45;101819.84;4934786;28;119753;-78
2022/06/03 00:10:33;;;;;;;12.93;5.07;;;;;;;15.73;61.08;101827.06;4934597;28;120040;-78
2022/06/03 00:13:42;;;;;;;11.43;5.13;;;;;;;15.71;60.43;101829.53;4934367;28;119491;-79
2022/06/03 00:16:31;;;;;;;8.85;4.65;;;;;;;15.68;60.52;101829.69;4899503;28;119939;-78
2022/06/03 00:19:18;;;;;;;11.00;4.70;;;;;;;15.64;60.63;101830.59;4951730;28;119610;-79
2022/06/03 00:22:08;;;;;;;8.25;4.60;;;;;;;15.61;60.48;101831.53;4952756;28;119357;-77
2022/06/03 00:25:01;;;;;;;12.05;4.97;;;;;;;15.60;60.43;101829.19;4918300;28;121227;-78
2022/06/03 00:27:56;;;;;;;11.70;4.88;;;;;;;15.51;60.57;101832.69;4918157;28;119955;-78
2022/06/03 00:31:02;;;;;;;11.07;4.88;;;;;;;15.52;60.84;101827.91;4956760;28;119188;-77
2022/06/03 00:33:46;;;;;;;7.60;5.03;;;;;;;15.49;60.45;101823.31;4953436;28;120581;-78
2022/06/03 00:36:45;;;;;;;12.40;5.25;;;;;;;15.48;60.79;101827.28;4955199;28;120253;-77
2022/06/03 00:39:34;;;;;;;13.15;5.40;;;;;;;15.47;60.93;101829.28;4938437;28;119908;-78
2022/06/03 00:42:21;;;;;;;11.88;5.28;;;;;;;15.47;60.59;101826.53;4910826;28;119604;-77
2022/06/03 00:44:50;;;;;;;9.50;4.93;;;;;;;15.47;61.14;101823.00;4955804;28;119350;-78
2022/06/03 00:47:37;;;;;;;8.60;5.18;;;;;;;15.49;61.22;101834.38;4937602;28;119622;-77
2022/06/03 00:50:15;;;;;;;9.07;4.90;;;;;;;15.46;60.86;101825.00;4954905;28;120363;-78
2022/06/03 00:53:00;;;;;;;13.48;5.10;;;;;;;15.48;61.60;101827.28;4951670;28;119401;-78
2022/06/03 00:56:15;;;;;;;10.32;5.85;;;;;;;15.47;61.01;101831.28;4958306;28;119225;-78
2022/06/03 00:59:08;;;;;;;8.23;4.60;;;;;;;15.46;60.75;101836.06;4941665;28;120393;-78
2022/06/03 01:01:59;;;;;;;12.63;5.07;;;;;;;15.44;61.20;101821.91;4953331;28;119214;-79
2022/06/03 01:04:39;;;;;;;8.30;5.25;;;;;;;15.45;60.62;101833.75;4952830;28;121270;-78
2022/06/03 01:07:17;;;;;;;14.32;5.20;;;;;;;15.43;60.70;101820.38;4953925;28;119832;-78
2022/06/03 01:10:12;;;;;;;13.07;5.25;;;;;;;15.45;60.58;101833.75;4928383;28;121170;-77
2022/06/03 01:12:50;;;;;;;13.13;5.20;;;;;;;15.44;60.86;101827.44;4928325;28;120842;-78
2022/06/03 01:15:31;;;;;;;16.58;5.55;;;;;;;15.44;60.72;101837.72;4937928;28;119738;-77
2022/06/03 01:18:06;;;;;;;13.23;5.00;;;;;;;15.39;60.47;101824.50;4969907;28;119486;-78
2022/06/03 01:20:36;;;;;;;11.73;5.50;;;;;;;15.41;60.20;101833.13;4958700;28;119991;-77
2022/06/03 01:23:26;;;;;;;12.02;5.40;;;;;;;15.40;60.59;101828.81;4954740;28;119809;-78
2022/06/03 01:26:17;;;;;;;9.05;5.28;;;;;;;15.38;60.53;101834.00;4939277;28;121533;-78
2022/06/03 01:28:45;;;;;;;14.82;5.93;;;;;;;15.36;60.18;101828.94;4917636;28;119294;-78
2022/06/03 01:31:49;;;;;;;13.63;5.53;;;;;;;15.34;60.63;101817.56;4935293;28;119310;-77
2022/06/03 01:34:43;;;;;;;14.98;5.50;;;;;;;15.29;60.26;101827.22;4935193;28;119272;-78
2022/06/03 01:37:34;;;;;;;12.43;5.40;;;;;;;15.22;60.09;101810.94;4945715;28;119869;-78
2022/06/03 01:40:23;;;;;;;10.90;5.40;;;;;;;15.24;60.42;101825.06;4950806;28;118756;-77
2022/06/03 01:43:04;;;;;;;11.80;5.90;;;;;;;15.22;61.15;101832.28;4908736;28;121892;-78
2022/06/03 01:45:44;;;;;;;15.75;5.70;;;;;;;15.17;61.07;101822.59;4916724;28;119484;-77
2022/06/03 01:48:28;;;;;;;19.83;6.05;;;;;;;15.20;61.29;101827.19;4900885;28;122279;-78
2022/06/03 01:50:54;;;;;;;10.43;5.93;;;;;;;15.18;61.39;101826.88;4917794;28;119416;-78
2022/06/03 01:53:44;;;;;;;11.00;6.00;;;;;;;15.18;60.93;101824.13;4935499;28;119277;-78
2022/06/03 01:56:44;;;;;;;11.15;5.93;;;;;;;15.14;61.08;101823.50;4916865;28;121894;-77
2022/06/03 01:59:34;;;;;;;10.55;5.50;;;;;;;15.13;60.73;101829.47;4934668;28;119268;-77
2022/06/03 02:02:37;;;;;;;15.00;6.47;;;;;;;15.10;61.29;101827.59;4917526;28;119592;-78
2022/06/03 02:05:25;;;;;;;11.90;6.15;;;;;;;15.04;61.12;101833.72;4933311;28;119330;-78
2022/06/03 02:08:13;;;;;;;13.68;6.38;;;;;;;15.02;61.66;101833.41;4938263;28;119311;-77
2022/06/03 02:11:00;;;;;;;13.93;6.40;;;;;;;15.03;62.23;101842.47;4934068;28;119379;-78
2022/06/03 02:13:32;;;;;;;12.82;7.03;;;;;;;15.00;61.31;101833.09;4933392;28;119870;-78
2022/06/03 02:15:58;;;;;;;14.30;6.45;;;;;;;14.99;61.41;101839.06;4925484;28;119423;-77
2022/06/03 02:18:29;;;;;;;11.95;6.82;;;;;;;14.96;60.97;101828.94;4935799;28;121401;-78
2022/06/03 02:21:08;;;;;;;14.55;6.65;;;;;;;14.94;60.79;101825.84;4954349;28;119379;-78
2022/06/03 02:23:52;;;;;;;14.90;6.75;;;;;;;14.93;61.22;101829.84;4936401;28;121395;-78
2022/06/03 02:26:39;;;;;;;11.38;6.55;;;;;;;14.91;61.30;101829.53;4936395;28;119928;-77
2022/06/03 02:32:24;;;;;;;13.02;7.25;;;;;;;14.90;62.08;101834.25;4957276;28;119657;-78
2022/06/03 02:35:14;;;;;;;17.58;7.65;;;;;;;14.89;61.76;101826.41;4936539;28;119437;-77
2022/06/03 02:37:45;;;;;;;13.52;7.05;;;;;;;14.84;61.59;101830.53;4946728;28;119275;-77
2022/06/03 02:40:53;;;;;;;12.25;7.20;;;;;;;14.83;61.73;101831.78;4933440;28;120594;-78
2022/06/03 02:44:09;;;;;;;13.73;7.68;;;;;;;14.79;61.66;101820.09;4938287;28;119706;-77
2022/06/03 02:47:13;;;;;;;11.50;6.97;;;;;;;14.78;61.83;101823.31;4872234;28;120668;-78
2022/06/03 02:49:54;;;;;;;10.50;6.90;;;;;;;14.76;62.15;101828.50;4924234;28;119634;-76
2022/06/03 02:52:50;;;;;;;12.88;7.60;;;;;;;14.68;62.33;101816.97;4930762;28;119483;-77
2022/06/03 02:55:53;;;;;;;12.80;7.55;;;;;;;14.69;62.07;101824.81;4930410;28;119930;-78
2022/06/03 02:58:50;;;;;;;12.95;6.78;;;;;;;14.65;61.89;101817.84;4951266;28;119808;-76
2022/06/03 03:01:43;;;;;;;15.90;6.60;;;;;;;14.61;61.59;101820.75;4932859;28;120475;-78
2022/06/03 03:04:53;;;;;;;12.00;7.30;;;;;;;14.57;61.87;101816.56;4903625;28;120270;-78
2022/06/03 03:07:37;;;;;;;9.68;7.10;;;;;;;14.53;61.96;101816.72;4857137;28;120301;-78
2022/06/03 03:10:21;;;;;;;15.00;8.20;;;;;;;14.49;61.68;101810.56;4910281;28;120030;-78
2022/06/03 03:12:56;;;;;;;11.60;7.65;;;;;;;14.46;62.18;101814.22;4951932;28;120089;-77
2022/06/03 03:15:22;;;;;;;12.57;7.60;;;;;;;14.45;62.09;101812.69;4953670;28;119811;-77
2022/06/03 03:17:50;;;;;;;14.13;7.38;;;;;;;14.41;61.80;101810.00;4953068;28;119727;-78
2022/06/03 03:20:34;;;;;;;12.07;7.40;;;;;;;14.38;62.14;101815.66;4952617;28;120120;-78
2022/06/03 03:23:21;;;;;;;14.18;7.60;;;;;;;14.35;62.18;101814.56;4939171;28;119582;-77
2022/06/03 03:26:21;;;;;;;12.82;7.35;;;;;;;14.31;62.43;101821.44;4952172;28;120068;-77
2022/06/03 03:29:24;;;;;;;11.70;7.32;;;;;;;14.27;61.72;101831.81;4952761;28;119995;-77
2022/06/03 03:32:11;;;;;;;10.93;7.28;;;;;;;14.19;62.04;101830.50;4935128;28;119339;-77
2022/06/03 03:35:09;;;;;;;15.55;8.02;;;;;;;14.16;62.17;101826.66;4952367;28;119930;-77
2022/06/03 03:37:39;;;;;;;14.93;7.68;;;;;;;14.12;62.75;101837.06;4952681;28;119731;-77
2022/06/03 03:40:37;;;;;;;15.27;8.75;;;;;;;14.11;62.37;101830.00;4935145;28;119951;-77
2022/06/03 03:43:03;;;;;;;13.10;8.38;;;;;;;14.10;63.13;101834.75;4927661;28;119832;-77
2022/06/03 03:45:29;;;;;;;11.52;7.80;;;;;;;14.11;62.76;101836.28;4935016;28;119943;-78
2022/06/03 03:48:00;;;;;;;15.80;9.07;;;;;;;14.13;63.38;101839.38;4956238;28;119296;-77
2022/06/03 03:50:45;;;;;;;16.23;9.00;;;;;;;14.17;63.28;101833.72;4935221;28;119841;-77
2022/06/03 03:53:14;;;;;;;12.20;8.63;;;;;;;14.20;63.72;101826.56;4934894;28;119848;-78
2022/06/03 03:55:42;;;;;;;13.35;9.07;;;;;;;14.24;63.53;101827.19;4934131;28;121891;-78
2022/06/03 03:58:40;;;;;;;11.95;9.13;;;;;;;14.30;63.38;101826.16;4934906;28;120156;-77
2022/06/03 04:01:13;;;;;;;14.07;8.50;;;;;;;14.34;63.46;101823.28;4921121;28;121797;-77
2022/06/03 04:03:57;;;;;;;12.82;8.60;;;;;;;14.42;63.36;101830.09;4951840;28;121155;-78
2022/06/03 04:06:41;;;;;;;14.40;8.57;;;;;;;14.49;62.90;101832.63;4952197;28;119571;-78
2022/06/03 04:09:28;;;;;;;15.20;8.27;;;;;;;14.55;62.28;101828.06;4924847;28;119715;-77
2022/06/03 04:12:00;;;;;;;12.95;8.05;;;;;;;14.58;62.93;101840.19;4956354;28;119685;-79
2022/06/03 04:15:01;;;;;;;14.60;8.25;;;;;;;14.58;62.92;101840.97;4921846;28;119888;-78
2022/06/03 04:17:51;;;;;;;14.05;8.63;;;;;;;14.64;63.07;101843.91;4920607;28;121473;-78
2022/06/03 04:20:35;;;;;;;15.38;8.80;;;;;;;14.65;63.04;101849.00;4955737;28;119408;-77
2022/06/03 04:23:40;;;;;;;13.20;8.55;;;;;;;14.67;62.56;101846.56;4921845;28;119833;-77
2022/06/03 04:26:24;;;;;;;13.50;7.97;;;;;;;14.69;62.69;101851.66;4929863;28;120103;-78
2022/06/03 04:28:53;;;;;;;15.45;8.55;;;;;;;14.71;63.12;101843.69;4955704;28;119333;-77
2022/06/03 04:32:10;;;;;;;15.52;8.15;;;;;;;14.73;62.24;101852.28;4955578;28;119438;-77
2022/06/03 04:34:50;;;;;;;11.55;8.32;;;;;;;14.72;62.80;101851.50;4925241;28;119988;-77
2022/06/03 04:37:41;;;;;;;12.55;8.38;;;;;;;14.76;63.00;101847.84;4970765;28;120562;-78
2022/06/03 04:40:44;;;;;;;17.50;8.98;;;;;;;14.78;63.08;101850.91;4937230;28;119414;-78
2022/06/03 04:43:46;;;;;;;12.93;8.55;;;;;;;14.79;63.41;101852.47;4955222;28;119962;-76
2022/06/03 04:46:34;;;;;;;14.10;8.30;;;;;;;14.80;63.31;101846.50;4938374;28;119414;-78
2022/06/03 04:49:37;;;;;;;13.23;7.18;;;;;;;14.83;62.71;101851.09;4954533;28;121269;-78
2022/06/03 04:52:09;;;;;;;15.02;7.78;;;;;;;14.85;63.11;101853.41;4935706;28;119635;-78
2022/06/03 04:54:59;;;;;;;13.05;7.18;;;;;;;14.89;63.13;101849.28;4950264;28;119295;-77
2022/06/03 04:57:43;;;;;;;15.43;8.02;;;;;;;14.93;63.38;101858.25;4953954;28;119889;-77
2022/06/03 05:00:30;;;;;;;14.40;7.72;;;;;;;14.97;63.56;101863.63;4957771;28;119620;-78
2022/06/03 05:03:33;;;;;;;14.65;7.15;;;;;;;14.99;63.04;101855.66;4954633;28;119777;-78
2022/06/03 05:06:14;;;;;;;13.93;7.28;;;;;;;15.04;63.79;101863.34;4921983;28;119890;-77
2022/06/03 05:09:10;;;;;;;15.15;7.03;;;;;;;15.05;63.72;101851.84;4937703;28;119804;-77
2022/06/03 05:12:13;;;;;;;16.42;7.20;;;;;;;15.13;62.77;101857.84;4937918;28;119794;-78
2022/06/03 05:15:01;;;;;;;13.35;7.22;;;;;;;15.16;63.08;101856.97;4954760;28;119382;-78
2022/06/03 05:17:45;;;;;;;13.77;7.15;;;;;;;15.20;62.95;101857.59;4953918;28;119843;-78
2022/06/03 05:20:40;;;;;;;10.70;6.63;;;;;;;15.25;62.79;101865.31;4953250;28;119905;-78
2022/06/03 05:23:27;;;;;;;9.93;6.82;;;;;;;15.31;62.11;101863.47;4950946;28;119477;-77
2022/06/03 05:25:53;;;;;;;12.27;6.97;;;;;;;15.36;62.32;101865.63;4958633;28;119371;-78
2022/06/03 05:28:40;;;;;;;11.05;6.57;;;;;;;15.44;61.80;101866.16;4937477;28;119541;-78
2022/06/03 05:31:43;;;;;;;13.57;7.03;;;;;;;15.47;61.41;101865.25;4953758;28;121050;-77
2022/06/03 05:34:51;;;;;;;12.57;6.93;;;;;;;15.51;62.52;101870.63;4954019;28;119940;-78
2022/06/03 05:38:04;;;;;;;13.68;6.45;;;;;;;15.55;61.49;101868.47;4923837;28;119812;-78
2022/06/03 05:42:23;;;;;;;14.85;5.53;;;;;;;15.56;61.01;101858.97;4913450;28;119344;-77
2022/06/03 05:44:35;;;;;;;11.68;5.30;;;;;;;15.60;61.01;101867.91;4896045;28;119501;-78
2022/06/03 05:47:09;;;;;;;10.48;5.20;;;;;;;15.60;60.42;101851.31;4938561;28;119728;-78
2022/06/03 05:49:57;;;;;;;;;;;;;;;15.61;60.61;101864.72;4921663;28;121077;-77
2022/06/03 05:52:38;;;;;;;9.65;5.38;;;;;;;15.64;60.28;101854.72;4958186;28;119663;-78
2022/06/03 05:55:16;;;;;;;11.32;5.57;;;;;;;15.72;60.36;101860.72;4933691;28;119493;-78
2022/06/03 05:58:03;;;;;;;12.15;5.50;;;;;;;15.75;60.89;101860.59;4912750;28;122344;-78
2022/06/03 06:00:55;;;;;;;12.35;5.13;;;;;;;15.78;60.75;101865.19;4937116;28;119452;-78
2022/06/03 06:03:27;;;;;;;12.93;5.05;;;;;;;15.81;61.11;101855.22;4937069;28;119481;-77
2022/06/03 06:06:25;;;;;;;13.02;5.30;;;;;;;15.82;60.77;101868.56;4936338;28;120646;-78
2022/06/03 06:09:18;;;;;;;8.73;5.03;;;;;;;15.81;60.47;101853.22;4954793;28;119430;-78
2022/06/03 06:11:56;;;;;;;8.68;5.10;;;;;;;15.87;60.94;101868.00;4950272;28;119474;-78
2022/06/03 06:14:44;;;;;;;8.60;5.18;;;;;;;15.87;60.48;101859.69;4925481;28;119937;-78
2022/06/03 06:17:34;;;;;;;13.25;5.53;;;;;;;15.86;60.25;101849.88;4957760;28;119369;-77
2022/06/03 06:20:38;;;;;;;8.88;5.22;;;;;;;15.88;61.01;101852.94;4953259;28;119868;-78
2022/06/03 06:23:29;;;;;;;12.07;5.68;;;;;;;15.90;60.74;101853.25;4951867;28;120074;-78
2022/06/03 06:26:26;;;;;;;11.73;5.97;;;;;;;16.02;60.64;101859.09;4953706;28;119656;-78
2022/06/03 06:29:19;;;;;;;11.20;5.30;;;;;;;16.05;59.40;101849.88;4953467;28;119884;-78
2022/06/03 06:32:04;;;;;;;12.35;5.85;;;;;;;16.06;60.35;101849.41;4936721;28;119421;-78
2022/06/03 06:34:42;;;;;;;11.15;6.10;;;;;;;16.07;59.99;101848.16;4951077;28;120001;-78
2022/06/03 06:37:20;;;;;;;12.55;5.80;;;;;;;16.07;59.59;101850.16;4900283;28;119745;-78
2022/06/03 06:40:08;;;;;;;10.73;5.93;;;;;;;16.06;59.88;101849.41;4945714;28;119477;-78
2022/06/03 06:43:01;;;;;;;12.65;6.68;;;;;;;16.07;60.13;101844.63;4944688;28;119814;-78
2022/06/03 06:46:02;;;;;;;10.80;5.30;;;;;;;16.07;59.31;101845.41;4948625;28;119709;-78
2022/06/03 06:48:56;;;;;;;12.05;6.20;;;;;;;16.09;59.88;101840.19;4954199;28;119616;-78
2022/06/03 06:51:28;;;;;;;;;;;;;;;16.07;59.61;101841.88;4929073;28;121854;-79
2022/06/03 06:54:10;;;;;;;11.48;6.03;;;;;;;16.04;59.04;101831.72;4934500;28;119515;-78
2022/06/03 06:56:45;;;;;;;11.82;6.30;;;;;;;16.10;59.91;101827.13;4938394;28;119471;-78
2022/06/03 06:59:23;;;;;;;12.05;6.75;;;;;;;16.17;59.83;101837.88;4934383;28;119452;-77
2022/06/03 07:02:03;;;;;;;11.80;6.20;;;;;;;15.92;61.01;101798.22;4943966;28;119538;-78
2022/06/03 07:04:37;;;;;;;11.27;6.82;;;;;;;16.23;60.61;101836.81;4933550;28;119353;-77
2022/06/03 07:07:15;;;;;;;11.90;6.45;;;;;;;16.26;59.96;101832.34;4950337;28;119446;-78
2022/06/03 07:09:58;;;;;;;10.23;5.93;;;;;;;16.27;60.67;101833.88;4953898;28;119418;-78
2022/06/03 07:12:37;;;;;;;12.32;6.90;;;;;;;16.28;61.05;101825.09;4944830;28;119632;-77
2022/06/03 07:15:24;;;;;;;12.13;7.10;;;;;;;16.31;61.19;101831.72;4935960;28;119718;-78
2022/06/03 07:21:15;;;;;;;9.13;6.40;;;;;;;16.36;60.35;101833.88;4946463;28;119318;-78
2022/06/03 07:23:58;;;;;;;11.32;6.13;;;;;;;16.38;60.47;101831.44;4919131;28;119376;-78
2022/06/03 07:26:30;;;;;;;12.70;6.70;;;;;;;16.42;60.43;101826.50;4952771;28;119719;-78
2022/06/03 07:29:18;;;;;;;15.27;6.85;;;;;;;16.45;60.36;101836.66;4906973;28;120662;-78
2022/06/03 07:31:50;;;;;;;10.38;6.15;;;;;;;16.47;60.12;101827.88;4927602;28;119620;-77
2022/06/03 07:34:27;;;;;;;8.43;6.05;;;;;;;16.52;60.34;101833.53;4931879;28;121885;-78
2022/06/03 07:37:00;;;;;;;11.80;6.10;;;;;;;16.56;60.23;101833.38;4915649;28;119588;-78
2022/06/03 07:39:43;;;;;;;14.23;6.13;;;;;;;16.62;59.76;101816.94;4934030;28;119629;-78
2022/06/03 07:42:25;;;;;;;10.52;5.80;;;;;;;16.68;59.04;101817.88;4932210;28;119950;-78
2022/06/03 07:44:55;;;;;;;11.80;5.63;;;;;;;16.74;58.81;101824.31;4942387;28;119715;-79
2022/06/03 07:47:23;;;;;;;9.75;5.95;;;;;;;16.82;60.22;101820.00;4935424;28;119444;-78
2022/06/03 07:50:00;;;;;;;8.80;6.28;;;;;;;16.91;60.01;101821.97;4918865;28;120114;-78
2022/06/03 07:52:51;;;;;;;8.93;6.78;;;;;;;16.99;60.48;101821.16;4957280;28;119338;-77
2022/06/03 07:55:24;;;;;;;14.30;7.50;;;;;;;17.08;61.44;101826.69;4942851;28;120186;-79
2022/06/03 07:57:52;;;;;;;13.48;7.60;;;;;;;17.18;60.56;101824.63;4952985;28;119253;-79
2022/06/03 08:00:20;;;;;;;11.05;5.97;;;;;;;17.25;58.83;101820.75;4935324;28;120919;-78
2022/06/03 08:02:59;;;;;;;11.52;6.30;;;;;;;17.36;59.06;101821.00;4951995;28;119863;-77
2022/06/03 08:05:25;;;;;;;9.13;5.32;;;;;;;17.39;59.24;101806.19;4935159;28;119704;-78
2022/06/03 08:10:58;;;;;;;9.50;5.00;;;;;;;17.72;58.89;101817.28;4949329;28;119536;-78
2022/06/03 08:13:25;;;;;;;9.85;5.05;;;;;;;17.83;58.90;101814.75;4934974;28;119557;-77
2022/06/03 08:16:22;;;;;;;9.60;5.40;;;;;;;17.97;58.81;101816.00;4956296;28;119992;-77
2022/06/03 08:18:49;;;;;;;9.38;6.10;;;;;;;18.04;58.68;101816.44;4946338;28;119351;-79
2022/06/03 08:21:41;;;;;;;13.90;5.82;;;;;;;18.18;58.04;101817.69;4941363;28;119354;-79
2022/06/03 08:24:12;;;;;;;9.05;5.70;;;;;;;18.27;57.59;101825.97;4929068;28;120886;-78
2022/06/03 08:26:42;;;;;;;8.73;5.65;;;;;;;18.37;58.02;101819.06;4933221;28;119053;-79
2022/06/03 08:29:14;;;;;;;10.07;6.05;;;;;;;18.48;58.03;101828.88;4935205;28;120229;-78
2022/06/03 08:31:41;;;;;;;13.55;5.65;;;;;;;18.52;57.64;101821.88;4934257;28;119809;-78
2022/06/03 08:34:14;;;;;;;8.50;5.72;;;;;;;18.59;56.69;101820.72;4945442;28;119393;-79
2022/06/03 08:36:41;;;;;;;8.05;5.20;;;;;;;18.74;55.96;101829.88;4953682;28;119693;-78
2022/06/03 08:39:13;;;;;;;8.55;5.25;;;;;;;18.82;55.21;101817.09;4926555;28;120591;-78
2022/06/03 08:41:47;;;;;;;9.38;5.10;;;;;;;18.89;56.12;101827.84;4921208;28;119825;-79
2022/06/03 08:44:28;;;;;;;10.27;5.50;;;;;;;18.97;55.97;101826.22;4935919;28;120196;-77
2022/06/03 08:47:08;;;;;;;10.88;5.65;;;;;;;19.05;56.07;101823.03;4951225;28;119959;-79
2022/06/03 08:49:57;;;;;;;11.27;5.15;;;;;;;19.18;56.29;101831.84;4921337;28;119507;-78
2022/06/03 08:52:48;;;;;;;8.25;5.43;;;;;;;19.27;55.70;101831.72;4939914;28;119448;-78
2022/06/03 08:55:35;;;;;;;10.15;5.90;;;;;;;19.30;55.20;101837.06;4918020;28;119450;-78
2022/06/03 08:58:40;;;;;;;9.35;5.05;;;;;;;19.35;54.38;101835.63;4936517;28;119369;-79
2022/06/03 09:01:22;;;;;;;10.73;5.95;;;;;;;19.39;55.16;101836.19;4949270;28;119444;-78
2022/06/03 09:04:05;;;;;;;9.68;5.13;;;;;;;19.46;55.55;101835.03;4955978;28;119656;-79
2022/06/03 09:06:38;;;;;;;8.65;5.80;;;;;;;19.51;55.10;101834.34;4938042;28;119679;-79
2022/06/03 09:09:36;;;;;;;9.55;4.88;;;;;;;19.58;55.16;101836.72;4955743;28;119406;-79
2022/06/03 09:12:23;;;;;;;5.82;4.75;;;;;;;19.62;54.69;101843.63;4921420;28;119478;-79
2022/06/03 09:14:50;;;;;;;8.00;6.07;;;;;;;19.67;54.71;101844.19;4937480;28;121883;-78
2022/06/03 09:17:48;;;;;;;10.57;5.82;;;;;;;19.70;54.59;101849.56;4936776;28;119408;-79
2022/06/03 09:20:21;;;;;;;7.57;5.93;;;;;;;19.70;54.54;101841.22;4954497;28;119432;-79
2022/06/03 09:22:50;;;;;;;7.78;5.22;;;;;;;19.77;53.53;101848.38;4920936;28;119933;-79
2022/06/03 09:25:17;;;;;;;11.20;5.60;;;;;;;19.77;51.24;101849.13;4941332;28;120237;-78
2022/06/03 09:27:46;;;;;;;8.90;5.45;;;;;;;19.72;51.18;101847.06;4930605;28;119714;-79
2022/06/03 09:30:17;;;;;;;9.15;5.38;;;;;;;19.74;52.85;101843.78;4953295;28;119966;-78
2022/06/03 09:32:49;;;;;;;9.27;5.10;;;;;;;19.68;52.84;101834.59;4937249;28;121535;-79
2022/06/03 09:35:20;;;;;;;10.20;4.32;;;;;;;19.75;52.66;101842.53;4937223;28;122501;-78
2022/06/03 09:37:53;;;;;;;4.30;3.80;;;;;;;19.81;53.16;101860.06;4921013;28;119750;-79
2022/06/03 09:40:23;;;;;;;7.03;4.60;;;;;;;19.84;53.55;101851.50;4942391;28;120211;-79
2022/06/03 09:42:54;;;;;;;7.50;4.57;;;;;;;19.90;53.01;101851.59;4942272;28;119477;-78
2022/06/03 09:45:20;;;;;;;11.00;4.78;;;;;;;19.93;53.56;101845.81;4936836;28;119469;-79
2022/06/03 09:47:49;;;;;;;8.45;3.80;;;;;;;19.95;52.73;101850.13;4940995;28;119574;-79
2022/06/03 09:50:17;;;;;;;5.20;3.78;;;;;;;19.90;53.56;101837.66;4954432;28;119549;-78
2022/06/03 09:52:43;;;;;;;10.65;3.80;;;;;;;19.98;53.37;101841.56;4954764;28;119512;-79
2022/06/03 09:55:37;;;;;;;10.00;4.15;;;;;;;20.03;53.27;101849.22;4954663;28;119692;-79
2022/06/03 09:58:07;;;;;;;7.60;3.90;;;;;;;20.01;52.65;101837.78;4953555;28;119759;-78
2022/06/03 10:00:53;;;;;;;9.68;4.47;;;;;;;20.10;53.33;101851.56;4969990;28;119711;-79
2022/06/03 10:03:21;;;;;;;9.48;4.32;;;;;;;20.17;53.25;101845.59;4936732;28;120119;-78
2022/06/03 10:05:50;;;;;;;7.05;4.25;;;;;;;20.18;52.79;101838.75;4920853;28;119956;-79
2022/06/03 10:08:23;;;;;;;5.75;4.30;;;;;;;20.22;53.33;101844.09;4936260;28;119953;-78
2022/06/03 10:13:42;;;;;;;7.05;4.05;;;;;;;20.22;52.77;101838.53;4923322;28;119739;-79
2022/06/03 10:16:10;;;;;;;5.47;3.90;;;;;;;20.23;53.07;101826.91;4936801;28;119587;-79
2022/06/03 10:18:48;;;;;;;9.82;4.43;;;;;;;20.24;51.07;101831.22;4925452;28;119546;-78
2022/06/03 10:21:14;;;;;;;5.68;4.15;;;;;;;20.24;51.98;101830.44;4917752;28;119517;-78
2022/06/03 10:23:52;;;;;;;7.60;4.38;;;;;;;20.25;51.69;101829.19;4934599;28;119497;-78
2022/06/03 10:26:22;;;;;;;10.45;4.47;;;;;;;20.26;51.60;101841.09;4917271;28;119785;-79
2022/06/03 10:28:50;;;;;;;6.97;4.10;;;;;;;20.22;51.72;101844.88;4946286;28;120065;-79
2022/06/03 10:31:21;;;;;;;11.15;4.65;;;;;;;20.21;51.41;101831.44;4936035;28;120155;-78
2022/06/03 10:33:58;;;;;;;9.35;4.60;;;;;;;20.16;51.20;101830.13;4958382;28;119644;-78
2022/06/03 10:36:36;;;;;;;7.93;4.05;;;;;;;20.16;51.08;101835.69;4953948;28;119380;-79
2022/06/03 10:39:04;;;;;;;5.97;3.95;;;;;;;20.15;51.32;101831.38;4937150;28;119791;-79
2022/06/03 10:41:40;;;;;;;7.07;3.55;;;;;;;20.15;51.88;101839.75;4937069;28;119499;-78
2022/06/03 10:44:28;;;;;;;7.32;3.90;;;;;;;20.16;52.25;101832.91;4936018;28;120493;-78
2022/06/03 10:47:03;;;;;;;6.82;3.75;;;;;;;20.18;51.77;101822.03;4929590;28;119568;-79
2022/06/03 10:49:32;;;;;;;7.88;4.40;;;;;;;20.20;51.69;101830.66;4900727;28;120078;-80
2022/06/03 11:03:23;;;;;;;7.40;3.45;;;;;;;20.24;50.63;101819.31;4934395;28;120319;-77
2022/06/03 11:05:49;;;;;;;10.80;4.25;;;;;;;20.21;51.30;101807.13;4916376;28;119403;-79
2022/06/03 11:08:15;;;;;;;7.22;3.35;;;;;;;20.26;51.02;101816.03;4934301;28;119482;-79
2022/06/03 11:10:49;;;;;;;7.32;3.28;;;;;;;20.26;51.22;101810.47;4916696;28;119509;-77
2022/06/03 11:13:48;;;;;;;5.55;3.20;;;;;;;20.26;51.47;101807.66;4933690;28;120024;-79
2022/06/03 11:16:25;;;;;;;6.53;4.15;;;;;;;20.24;50.45;101795.00;4872776;28;120321;-79
2022/06/03 11:18:51;;;;;;;6.47;3.50;;;;;;;20.26;51.60;101799.31;4952192;28;119782;-78
2022/06/03 11:21:36;;;;;;;5.07;3.35;;;;;;;20.31;50.63;101798.59;4912448;28;119629;-79
2022/06/03 11:24:02;;;;;;;7.90;3.95;;;;;;;20.32;51.24;101797.34;4940595;28;119631;-79
2022/06/03 11:26:37;;;;;;;8.65;4.15;;;;;;;20.34;50.72;101786.47;4959345;28;119423;-80
2022/06/03 11:29:15;;;;;;;8.43;3.83;;;;;;;20.36;50.17;101786.75;4919879;28;119997;-79
2022/06/03 11:31:46;;;;;;;4.22;3.30;;;;;;;20.34;51.02;101787.22;4918847;28;120902;-80
2022/06/03 11:34:19;;;;;;;6.68;3.80;;;;;;;20.36;50.10;101786.75;4951705;28;121446;-78
2022/06/03 11:36:58;;;;;;;5.20;3.08;;;;;;;20.34;48.10;101783.69;4952982;28;119354;-78
2022/06/03 11:39:51;;;;;;;6.50;3.25;;;;;;;20.32;48.98;101778.59;4926330;28;119939;-78
2022/06/03 11:42:27;;;;;;;6.93;3.15;;;;;;;20.30;49.71;101788.72;4938660;28;121585;-79
2022/06/03 11:45:09;;;;;;;5.45;3.40;;;;;;;20.29;49.31;101787.94;4934192;28;119478;-78
2022/06/03 11:47:56;;;;;;;8.20;3.55;;;;;;;20.28;49.54;101792.00;4899332;28;122952;-78
2022/06/03 11:50:25;;;;;;;4.00;2.95;;;;;;;20.29;49.25;101787.19;4933109;28;120044;-78
2022/06/03 11:52:54;;;;;;;5.70;3.30;;;;;;;20.24;49.16;101777.53;4899614;28;119864;-79
2022/06/03 11:55:23;;;;;;;5.18;3.45;;;;;;;20.31;48.63;101784.66;4932631;28;119479;-78
2022/06/03 11:58:17;;;;;;;7.05;3.53;;;;;;;20.31;48.34;101785.44;4936418;28;119396;-78
2022/06/03 12:00:49;;;;;;;8.23;4.50;;;;;;;20.27;48.44;101772.97;4941257;28;119474;-78
2022/06/03 12:03:40;;;;;;;9.00;3.90;;;;;;;20.35;49.08;101780.44;4927585;28;123018;-78
2022/06/03 12:06:25;;;;;;;4.50;3.22;;;;;;;20.31;48.57;101781.88;4957039;28;119434;-80
2022/06/03 12:09:18;;;;;;;9.32;3.47;;;;;;;20.35;48.90;101777.66;4928946;28;120327;-78
2022/06/03 12:15:17;;;;;;;4.40;2.80;;;;;;;20.42;47.57;101768.88;4916082;28;121454;-79
2022/06/03 12:17:43;;;;;;;7.55;3.40;;;;;;;20.45;47.01;101761.53;4950768;28;120022;-78
2022/06/03 12:20:37;;;;;;;5.30;3.40;;;;;;;20.47;47.29;101761.81;4953084;28;119707;-79
2022/06/03 12:23:12;;;;;;;6.28;2.78;;;;;;;20.49;46.49;101762.84;4921319;28;120493;-79
2022/06/03 12:25:41;;;;;;;9.55;3.10;;;;;;;20.49;47.39;101765.63;4951045;28;121842;-79
2022/06/03 12:28:32;;;;;;;7.63;2.80;;;;;;;20.46;46.50;101754.69;4933161;28;119694;-78
2022/06/03 12:31:03;;;;;;;7.25;3.33;;;;;;;20.49;46.02;101759.28;4922544;28;120143;-78
2022/06/03 12:33:34;;;;;;;6.90;2.83;;;;;;;20.46;47.32;101752.69;4936435;28;120706;-79
2022/06/03 12:36:08;;;;;;;4.90;3.20;;;;;;;20.53;48.41;101748.69;4938240;28;120149;-79
2022/06/03 12:38:43;;;;;;;7.22;3.47;;;;;;;20.56;47.49;101749.69;4938040;28;120929;-78
2022/06/03 12:41:09;;;;;;;4.60;2.35;;;;;;;20.51;47.47;101743.59;4924078;28;119839;-79
2022/06/03 12:43:47;;;;;;;4.60;2.33;;;;;;;20.58;45.99;101747.19;4892203;28;122161;-78
2022/06/03 12:46:42;;;;;;;5.28;2.00;;;;;;;20.58;43.34;101747.94;4955877;28;120103;-78
2022/06/03 12:49:43;;;;;;;6.10;2.33;;;;;;;20.61;43.65;101749.78;4955775;28;119503;-78